Time;durP1;ratioP1;P1;durP2;ratioP2;P2;SDS_P1;SDS_P2;PMS_P1;PMS_P2;Temp;Humidity;BMP_temperature;BMP_pressure;BME280_temperature;BME280_humidity;BME280_pressure;Samples;Min_cycle;Max_cycle;Signal;HPM_P1;HPM_P2
2021/12/03 00:01:46;;;;;;;2.22;2.13;;;4.50;99.90;;;;;;5025772;28;20239;-77
2021/12/03 00:04:13;;;;;;;2.40;2.30;;;4.70;99.90;;;;;;5027049;28;20240;-77
2021/12/03 00:06:40;;;;;;;2.38;2.28;;;4.80;99.90;;;;;;5026258;28;20246;-77
2021/12/03 00:09:09;;;;;;;2.33;2.22;;;4.90;99.90;;;;;;5026387;28;20234;-78
2021/12/03 00:11:36;;;;;;;2.47;2.38;;;5.00;99.90;;;;;;5024479;28;20235;-77
2021/12/03 00:14:03;;;;;;;2.40;2.30;;;5.00;99.90;;;;;;5027293;28;20235;-77
2021/12/03 00:16:30;;;;;;;2.55;2.45;;;5.10;99.90;;;;;;5027331;28;20242;-77
2021/12/03 00:18:58;;;;;;;1.98;1.95;;;5.10;99.90;;;;;;5022813;28;20242;-78
2021/12/03 00:21:26;;;;;;;2.58;2.47;;;5.10;99.90;;;;;;5024515;28;20235;-77
2021/12/03 00:23:54;;;;;;;2.17;2.08;;;5.10;99.90;;;;;;5040143;22;20223;-73
2021/12/03 00:26:23;;;;;;;2.28;2.17;;;5.10;99.90;;;;;;5024400;28;20234;-73
2021/12/03 00:28:50;;;;;;;2.40;2.30;;;5.20;99.90;;;;;;5018707;28;20693;-73
2021/12/03 00:31:17;;;;;;;2.30;2.20;;;5.20;99.90;;;;;;5022724;28;20637;-73
2021/12/03 00:33:44;;;;;;;2.42;2.33;;;5.30;99.90;;;;;;5020774;28;20273;-74
2021/12/03 00:36:12;;;;;;;2.13;2.03;;;5.30;99.90;;;;;;5019487;28;20235;-76
2021/12/03 00:38:43;;;;;;;2.47;2.38;;;5.30;99.90;;;;;;5022510;28;20518;-73
2021/12/03 00:41:14;;;;;;;2.13;2.03;;;5.40;99.90;;;;;;5019429;28;20682;-74
2021/12/03 00:43:46;;;;;;;2.38;2.28;;;5.40;99.90;;;;;;5023459;28;20302;-73
2021/12/03 00:46:15;;;;;;;2.30;2.20;;;5.40;99.90;;;;;;5018908;28;20247;-72
2021/12/03 00:48:43;;;;;;;2.30;2.20;;;5.40;99.90;;;;;;5027537;28;20227;-74
2021/12/03 00:51:12;;;;;;;2.10;2.00;;;5.40;99.90;;;;;;5022822;28;20710;-73
2021/12/03 00:53:40;;;;;;;1.98;1.90;;;5.40;99.90;;;;;;5021590;28;20302;-73
2021/12/03 00:56:08;;;;;;;2.40;2.30;;;5.40;99.90;;;;;;5022134;28;20254;-74
2021/12/03 00:58:35;;;;;;;2.42;2.33;;;5.40;99.90;;;;;;5019746;28;20593;-73
2021/12/03 01:01:04;;;;;;;2.30;2.20;;;5.40;99.90;;;;;;5020366;28;20227;-73
2021/12/03 01:03:31;;;;;;;2.00;2.00;;;5.40;99.90;;;;;;5021884;28;20239;-71
2021/12/03 01:05:59;;;;;;;2.15;2.05;;;5.40;99.90;;;;;;5024542;28;20238;-74
2021/12/03 01:08:26;;;;;;;2.25;2.15;;;5.40;99.90;;;;;;5022138;28;20234;-74
2021/12/03 01:10:53;;;;;;;2.08;1.98;;;5.50;99.90;;;;;;5018964;28;20262;-73
2021/12/03 01:13:20;;;;;;;1.92;1.83;;;5.50;99.90;;;;;;5019670;28;20235;-74
2021/12/03 01:15:48;;;;;;;2.25;2.15;;;5.50;99.90;;;;;;5019254;28;20848;-73
2021/12/03 01:18:17;;;;;;;2.30;2.20;;;5.50;99.90;;;;;;5020673;28;20238;-73
2021/12/03 01:20:45;;;;;;;2.10;2.00;;;5.40;99.90;;;;;;5018759;28;20231;-73
2021/12/03 01:23:13;;;;;;;2.30;2.20;;;5.30;99.90;;;;;;5018705;28;20240;-73
2021/12/03 01:25:41;;;;;;;1.80;1.80;;;5.20;99.90;;;;;;5020519;28;20223;-78
2021/12/03 01:28:08;;;;;;;2.15;2.05;;;5.20;99.90;;;;;;5025833;28;20243;-75
2021/12/03 01:30:37;;;;;;;2.15;2.05;;;5.30;99.90;;;;;;5018716;28;20223;-73
2021/12/03 01:33:06;;;;;;;1.58;1.58;;;5.30;99.90;;;;;;5018246;28;20231;-75
2021/12/03 01:35:35;;;;;;;2.13;2.03;;;5.30;99.90;;;;;;5019172;28;20295;-74
2021/12/03 01:38:03;;;;;;;1.92;1.92;;;5.30;99.90;;;;;;5021639;28;20913;-75
2021/12/03 01:40:31;;;;;;;1.90;1.80;;;5.20;99.90;;;;;;5024749;28;20310;-73
2021/12/03 01:42:58;;;;;;;1.77;1.77;;;5.20;99.90;;;;;;5020805;28;20250;-73
2021/12/03 01:45:28;;;;;;;1.83;1.83;;;5.20;99.90;;;;;;5016810;28;20228;-74
2021/12/03 01:47:56;;;;;;;2.45;2.35;;;5.20;99.90;;;;;;5018570;28;20574;-75
2021/12/03 01:50:27;;;;;;;2.15;2.05;;;5.20;99.90;;;;;;5018311;28;20223;-75
2021/12/03 01:52:56;;;;;;;1.88;1.88;;;5.30;99.90;;;;;;5019894;28;20232;-76
2021/12/03 01:55:23;;;;;;;2.17;2.08;;;5.30;99.90;;;;;;5021314;28;20733;-77
2021/12/03 01:57:53;;;;;;;1.88;1.88;;;5.30;99.90;;;;;;5017914;28;20235;-74
2021/12/03 02:00:25;;;;;;;1.92;1.83;;;5.30;99.90;;;;;;5019998;28;20934;-74
2021/12/03 02:02:52;;;;;;;2.20;2.10;;;5.30;99.90;;;;;;5019467;28;20243;-77
2021/12/03 02:05:20;;;;;;;1.70;1.70;;;5.30;99.90;;;;;;5021846;28;20225;-77
2021/12/03 02:07:47;;;;;;;2.10;2.05;;;5.40;99.90;;;;;;5018986;28;20227;-76
2021/12/03 02:10:18;;;;;;;3.35;1.98;;;5.30;99.90;;;;;;5019689;28;20227;-76
2021/12/03 02:12:45;;;;;;;1.85;1.85;;;5.30;99.90;;;;;;5020062;28;20246;-78
2021/12/03 02:15:12;;;;;;;1.70;1.70;;;5.20;99.90;;;;;;5021425;28;20227;-76
2021/12/03 02:17:40;;;;;;;2.08;1.98;;;5.20;99.90;;;;;;5025435;28;20231;-74
2021/12/03 02:20:09;;;;;;;1.83;1.83;;;5.20;99.90;;;;;;5022966;28;20600;-74
2021/12/03 02:22:39;;;;;;;1.90;1.90;;;5.20;99.90;;;;;;5025668;28;20215;-74
2021/12/03 02:25:08;;;;;;;1.80;1.80;;;5.20;99.90;;;;;;5024231;28;20737;-73
2021/12/03 02:27:35;;;;;;;2.40;2.30;;;5.20;99.90;;;;;;5025747;28;20235;-73
2021/12/03 02:30:06;;;;;;;2.17;2.08;;;5.20;99.90;;;;;;5023292;28;20220;-75
2021/12/03 02:32:33;;;;;;;1.90;1.80;;;5.20;99.90;;;;;;5022381;28;20593;-74
2021/12/03 02:35:00;;;;;;;2.60;2.50;;;5.20;99.90;;;;;;5025434;28;20242;-75
2021/12/03 02:37:27;;;;;;;2.67;2.47;;;5.20;99.90;;;;;;5023264;28;20241;-75
2021/12/03 02:39:56;;;;;;;2.15;2.05;;;5.20;99.90;;;;;;5023067;28;20231;-73
2021/12/03 02:42:23;;;;;;;2.30;2.20;;;5.20;99.90;;;;;;5021280;28;20231;-74
2021/12/03 02:44:50;;;;;;;2.15;2.05;;;5.30;99.90;;;;;;5025632;28;20732;-77
2021/12/03 02:47:18;;;;;;;2.33;2.22;;;5.30;99.90;;;;;;5024581;28;20231;-74
2021/12/03 02:49:45;;;;;;;2.08;1.98;;;5.30;99.90;;;;;;5027934;28;20230;-76
2021/12/03 02:52:13;;;;;;;2.38;2.28;;;5.30;99.90;;;;;;5026209;28;20644;-77
2021/12/03 02:54:40;;;;;;;2.08;1.98;;;5.30;99.90;;;;;;5030803;28;21879;-73
2021/12/03 02:57:08;;;;;;;1.60;1.60;;;5.30;99.90;;;;;;5028560;28;20787;-73
2021/12/03 02:59:36;;;;;;;1.60;1.60;;;5.30;99.90;;;;;;5028370;28;20223;-75
2021/12/03 03:02:04;;;;;;;2.00;1.90;;;5.10;99.90;;;;;;5028429;28;20234;-74
2021/12/03 03:04:31;;;;;;;2.08;2.03;;;4.80;99.90;;;;;;5026552;28;20243;-75
2021/12/03 03:06:59;;;;;;;2.35;2.25;;;4.70;99.90;;;;;;5022244;28;20591;-76
2021/12/03 03:09:27;;;;;;;2.33;2.22;;;4.50;99.90;;;;;;5028342;28;20302;-81
2021/12/03 03:11:54;;;;;;;2.28;2.17;;;4.40;99.90;;;;;;5027839;28;20325;-76
2021/12/03 03:14:23;;;;;;;2.17;2.08;;;4.30;99.90;;;;;;5028318;28;20231;-77
2021/12/03 03:16:50;;;;;;;1.80;1.80;;;4.30;99.90;;;;;;5025494;28;20314;-78
2021/12/03 03:19:20;;;;;;;2.22;2.15;;;4.40;99.90;;;;;;5026249;28;20710;-74
2021/12/03 03:21:48;;;;;;;2.10;2.00;;;4.40;99.90;;;;;;5025917;28;20224;-75
2021/12/03 03:24:16;;;;;;;2.00;1.90;;;4.50;99.90;;;;;;5028229;28;20242;-80
2021/12/03 03:26:45;;;;;;;2.20;2.10;;;4.60;99.90;;;;;;5028065;28;20250;-74
2021/12/03 03:29:17;;;;;;;1.92;1.90;;;4.60;99.90;;;;;;5024114;28;20240;-77
2021/12/03 03:31:46;;;;;;;1.80;1.80;;;4.60;99.90;;;;;;5025521;28;20216;-80
2021/12/03 03:34:14;;;;;;;2.00;2.00;;;4.60;99.90;;;;;;5028298;28;20322;-80
2021/12/03 03:36:43;;;;;;;1.90;1.90;;;4.50;99.90;;;;;;5025093;28;20219;-78
2021/12/03 03:39:13;;;;;;;1.85;1.85;;;4.60;99.90;;;;;;5028005;28;20259;-80
2021/12/03 03:41:41;;;;;;;2.42;2.33;;;4.70;99.90;;;;;;5022335;28;20242;-75
2021/12/03 03:44:08;;;;;;;2.10;2.00;;;4.70;99.90;;;;;;5026331;28;20247;-76
2021/12/03 03:46:35;;;;;;;2.17;2.08;;;4.70;99.90;;;;;;5027854;28;20235;-81
2021/12/03 03:49:05;;;;;;;2.08;1.98;;;4.70;99.90;;;;;;5028942;28;20306;-80
2021/12/03 03:51:33;;;;;;;2.13;2.03;;;4.80;99.90;;;;;;5027962;28;20231;-77
2021/12/03 03:54:00;;;;;;;2.33;2.22;;;4.80;99.90;;;;;;5026649;28;20297;-75
2021/12/03 03:56:27;;;;;;;1.83;1.83;;;4.80;99.90;;;;;;5026995;28;20235;-75
2021/12/03 03:58:54;;;;;;;2.20;2.10;;;4.80;99.90;;;;;;5027398;28;20315;-77
2021/12/03 04:01:22;;;;;;;2.22;2.13;;;4.80;99.90;;;;;;5028699;28;20831;-77
2021/12/03 04:03:49;;;;;;;2.10;2.10;;;4.80;99.90;;;;;;5026362;28;20238;-76
2021/12/03 04:06:19;;;;;;;2.40;2.30;;;4.90;99.90;;;;;;5025867;28;20728;-76
2021/12/03 04:08:49;;;;;;;2.22;2.13;;;4.80;99.90;;;;;;5028546;28;20334;-78
2021/12/03 04:11:18;;;;;;;1.63;1.63;;;4.90;99.90;;;;;;5026397;28;20238;-78
2021/12/03 04:13:45;;;;;;;2.00;2.00;;;4.80;99.90;;;;;;5027235;28;20227;-80
2021/12/03 04:16:13;;;;;;;1.92;1.92;;;4.80;99.90;;;;;;5025096;28;20231;-75
2021/12/03 04:18:40;;;;;;;1.58;1.58;;;4.80;99.90;;;;;;5025592;28;20235;-78
2021/12/03 04:21:07;;;;;;;2.72;2.50;;;4.80;99.90;;;;;;5026751;28;20216;-77
2021/12/03 04:23:36;;;;;;;1.95;1.92;;;4.70;99.90;;;;;;5026093;28;20612;-78
2021/12/03 04:26:04;;;;;;;2.30;2.20;;;4.70;99.90;;;;;;5025506;28;20216;-76
2021/12/03 04:28:31;;;;;;;2.22;2.13;;;4.60;99.90;;;;;;5024769;28;20219;-76
2021/12/03 04:30:58;;;;;;;2.10;2.00;;;4.60;99.90;;;;;;5024788;28;20591;-79
2021/12/03 04:33:26;;;;;;;2.20;2.10;;;4.60;99.90;;;;;;5026492;28;20234;-75
2021/12/03 04:35:53;;;;;;;2.33;2.22;;;4.60;99.90;;;;;;5025916;28;20227;-75
2021/12/03 04:38:21;;;;;;;2.03;1.92;;;4.60;99.90;;;;;;5021611;28;22587;-76
2021/12/03 04:40:49;;;;;;;1.85;1.85;;;4.50;99.90;;;;;;5024906;28;20223;-76
2021/12/03 04:43:17;;;;;;;2.15;2.05;;;4.40;99.90;;;;;;5027759;28;20345;-74
2021/12/03 04:45:44;;;;;;;2.30;2.20;;;4.50;99.90;;;;;;5026071;28;20228;-78
2021/12/03 04:48:11;;;;;;;2.05;1.95;;;4.40;99.90;;;;;;5025120;28;20239;-80
2021/12/03 04:50:41;;;;;;;2.00;2.00;;;4.40;99.90;;;;;;5021718;28;20228;-78
2021/12/03 04:53:10;;;;;;;1.90;1.90;;;4.40;99.90;;;;;;5022316;28;20254;-78
2021/12/03 04:55:38;;;;;;;2.58;2.47;;;4.40;99.90;;;;;;5026151;28;20234;-80
2021/12/03 04:58:07;;;;;;;1.90;1.90;;;4.40;99.90;;;;;;5024617;28;20484;-77
2021/12/03 05:00:38;;;;;;;2.00;1.90;;;4.40;99.90;;;;;;5025151;28;20607;-80
2021/12/03 05:03:06;;;;;;;3.20;2.20;;;4.40;99.90;;;;;;5023040;28;20223;-76
2021/12/03 05:05:34;;;;;;;2.35;2.25;;;4.40;99.90;;;;;;5024352;28;20285;-77
2021/12/03 05:08:04;;;;;;;2.20;2.10;;;4.40;99.90;;;;;;5025622;28;20239;-78
2021/12/03 05:10:34;;;;;;;2.38;2.28;;;4.40;99.90;;;;;;5025811;28;20235;-74
2021/12/03 05:13:04;;;;;;;2.38;2.28;;;4.40;99.90;;;;;;5023693;28;20224;-75
2021/12/03 05:15:33;;;;;;;2.42;2.33;;;4.40;99.90;;;;;;5026278;28;20235;-75
2021/12/03 05:18:01;;;;;;;2.10;2.10;;;4.40;99.90;;;;;;5021821;28;20705;-74
2021/12/03 05:20:28;;;;;;;2.25;2.17;;;4.30;99.90;;;;;;5024617;28;20240;-78
2021/12/03 05:22:57;;;;;;;2.20;2.10;;;4.20;99.90;;;;;;5025527;28;20247;-78
2021/12/03 05:25:24;;;;;;;2.38;2.28;;;4.20;99.90;;;;;;5025445;28;20227;-74
2021/12/03 05:27:53;;;;;;;2.90;2.80;;;4.20;99.90;;;;;;5025918;28;20236;-79
2021/12/03 05:30:21;;;;;;;2.55;2.45;;;4.20;99.90;;;;;;5019068;28;20228;-79
2021/12/03 05:32:49;;;;;;;2.50;2.40;;;4.20;99.90;;;;;;5025621;28;20228;-77
2021/12/03 05:35:17;;;;;;;2.70;2.60;;;4.20;99.90;;;;;;5027246;28;20219;-73
2021/12/03 05:37:44;;;;;;;2.53;2.42;;;4.20;99.90;;;;;;5027916;28;20227;-75
2021/12/03 05:40:13;;;;;;;2.70;2.60;;;4.10;99.90;;;;;;5021638;28;20235;-75
2021/12/03 05:42:40;;;;;;;2.47;2.38;;;4.10;99.90;;;;;;5022446;28;20235;-76
2021/12/03 05:45:11;;;;;;;2.60;2.50;;;4.10;99.90;;;;;;5024680;28;20961;-74
2021/12/03 05:47:38;;;;;;;2.97;2.78;;;4.10;99.90;;;;;;5023259;28;20708;-76
2021/12/03 05:50:10;;;;;;;2.85;2.75;;;4.20;99.90;;;;;;5024507;28;20226;-77
2021/12/03 05:52:38;;;;;;;2.38;2.28;;;4.20;99.90;;;;;;5022000;28;21299;-74
2021/12/03 05:55:06;;;;;;;2.53;2.42;;;4.30;99.90;;;;;;5025722;28;20230;-74
2021/12/03 05:57:34;;;;;;;2.58;2.47;;;4.30;99.90;;;;;;5025326;28;20698;-75
2021/12/03 06:00:01;;;;;;;2.45;2.35;;;4.30;99.90;;;;;;5024673;28;20243;-74
2021/12/03 06:02:28;;;;;;;3.08;2.88;;;4.30;99.90;;;;;;5024261;28;20227;-75
2021/12/03 06:04:55;;;;;;;2.50;2.40;;;4.30;99.90;;;;;;5021216;28;20230;-79
2021/12/03 06:07:23;;;;;;;2.78;2.67;;;4.30;99.90;;;;;;5025086;28;20228;-75
2021/12/03 06:09:51;;;;;;;2.90;2.80;;;4.30;99.90;;;;;;5023877;28;20226;-75
2021/12/03 06:12:18;;;;;;;2.50;2.40;;;4.30;99.90;;;;;;5021291;28;20227;-76
2021/12/03 06:14:45;;;;;;;2.42;2.33;;;4.20;99.90;;;;;;5024738;28;20243;-74
2021/12/03 06:17:13;;;;;;;2.35;2.25;;;4.30;99.90;;;;;;5022324;28;20238;-74
2021/12/03 06:19:41;;;;;;;2.70;2.60;;;4.30;99.90;;;;;;5021833;28;20716;-76
2021/12/03 06:22:08;;;;;;;2.35;2.25;;;4.30;99.90;;;;;;5024909;28;20270;-73
2021/12/03 06:24:37;;;;;;;2.38;2.28;;;4.20;99.90;;;;;;5041240;22;20453;-76
2021/12/03 06:27:05;;;;;;;2.97;2.80;;;4.20;99.90;;;;;;5033031;28;20246;-79
2021/12/03 06:29:32;;;;;;;2.50;2.40;;;4.10;99.90;;;;;;5030770;28;20251;-77
2021/12/03 06:31:59;;;;;;;2.25;2.15;;;4.10;99.90;;;;;;5033029;28;20235;-77
2021/12/03 06:34:27;;;;;;;2.58;2.47;;;4.10;99.90;;;;;;5035113;28;20704;-77
2021/12/03 06:36:54;;;;;;;2.38;2.28;;;4.10;99.90;;;;;;5037942;28;20227;-79
2021/12/03 06:39:21;;;;;;;2.15;2.05;;;4.10;99.90;;;;;;5033933;28;20717;-78
2021/12/03 06:41:49;;;;;;;2.20;2.10;;;4.10;99.90;;;;;;5036500;28;20253;-76
2021/12/03 06:44:17;;;;;;;2.17;2.08;;;4.10;99.90;;;;;;5032976;28;20855;-76
2021/12/03 06:46:44;;;;;;;2.53;2.42;;;4.10;99.90;;;;;;5035771;28;20254;-77
2021/12/03 06:49:12;;;;;;;2.20;2.10;;;4.10;99.90;;;;;;5033450;28;20454;-78
2021/12/03 06:51:42;;;;;;;2.10;2.00;;;4.10;99.90;;;;;;5030875;28;20226;-78
2021/12/03 06:54:10;;;;;;;2.80;2.70;;;4.10;99.90;;;;;;5035171;28;20246;-76
2021/12/03 06:56:47;;;;;;;2.72;2.63;;;4.00;99.90;;;;;;5044897;28;20234;-77
2021/12/03 06:59:16;;;;;;;3.03;2.80;;;3.90;99.90;;;;;;5039517;28;20635;-78
2021/12/03 07:01:44;;;;;;;2.45;2.35;;;3.90;99.90;;;;;;5047801;28;20505;-78
2021/12/03 07:04:11;;;;;;;2.70;2.50;;;3.80;99.90;;;;;;5047349;28;20231;-79
2021/12/03 07:06:39;;;;;;;2.60;2.50;;;3.80;99.90;;;;;;5045792;28;20897;-75
2021/12/03 07:09:06;;;;;;;2.75;2.55;;;3.80;99.90;;;;;;5042443;28;20707;-77
2021/12/03 07:11:33;;;;;;;2.53;2.42;;;3.90;99.90;;;;;;5042574;28;20823;-78
2021/12/03 07:14:01;;;;;;;2.60;2.50;;;3.90;99.90;;;;;;5042870;28;20226;-75
2021/12/03 07:16:29;;;;;;;2.63;2.53;;;3.90;99.90;;;;;;5035045;28;20254;-76
2021/12/03 07:18:57;;;;;;;2.50;2.40;;;3.90;99.90;;;;;;5039799;28;20242;-75
2021/12/03 07:21:25;;;;;;;2.70;2.58;;;4.00;99.90;;;;;;5039152;28;20230;-79
2021/12/03 07:23:53;;;;;;;2.50;2.40;;;4.00;99.90;;;;;;5041535;28;20226;-76
2021/12/03 07:26:20;;;;;;;2.15;2.05;;;4.00;99.90;;;;;;5037876;28;20237;-75
2021/12/03 07:28:47;;;;;;;2.00;1.90;;;4.10;99.90;;;;;;5034698;28;20705;-78
2021/12/03 07:31:15;;;;;;;2.47;2.38;;;4.00;99.90;;;;;;5047548;28;20221;-77
2021/12/03 07:33:44;;;;;;;2.10;2.00;;;4.00;99.90;;;;;;5045646;28;20700;-77
2021/12/03 07:36:11;;;;;;;2.53;2.42;;;4.00;99.90;;;;;;5044736;28;20223;-75
2021/12/03 07:38:38;;;;;;;2.53;2.42;;;4.00;99.90;;;;;;5041365;28;20721;-78
2021/12/03 07:41:06;;;;;;;2.47;2.38;;;4.00;99.90;;;;;;5045118;28;20249;-78
2021/12/03 07:43:33;;;;;;;2.80;2.55;;;4.10;99.90;;;;;;5043935;28;20237;-77
2021/12/03 07:46:01;;;;;;;2.50;2.40;;;4.10;99.90;;;;;;5045492;28;20222;-78
2021/12/03 07:48:29;;;;;;;2.38;2.28;;;4.10;99.90;;;;;;5048201;28;20230;-77
2021/12/03 07:50:58;;;;;;;2.20;2.10;;;4.10;99.90;;;;;;5043665;28;20219;-76
2021/12/03 07:53:26;;;;;;;2.67;2.45;;;4.10;99.90;;;;;;5043264;28;20239;-76
2021/12/03 07:55:54;;;;;;;2.20;2.10;;;4.00;99.90;;;;;;5047083;28;20230;-76
2021/12/03 07:58:21;;;;;;;2.28;2.17;;;4.10;99.90;;;;;;5049104;28;20685;-76
2021/12/03 08:00:49;;;;;;;2.40;2.30;;;4.20;99.90;;;;;;5039792;28;20227;-76
2021/12/03 08:03:17;;;;;;;2.55;2.45;;;4.20;99.90;;;;;;5040968;28;20238;-77
2021/12/03 08:05:44;;;;;;;2.67;2.58;;;4.20;99.90;;;;;;5040007;28;20222;-76
2021/12/03 08:08:13;;;;;;;2.72;2.63;;;4.50;99.90;;;;;;5048749;28;20238;-77
2021/12/03 08:10:40;;;;;;;2.72;2.63;;;5.40;99.90;;;;;;5044941;28;20241;-77
2021/12/03 08:13:07;;;;;;;2.90;2.70;;;6.30;99.90;;;;;;5038267;28;21324;-77
2021/12/03 08:15:38;;;;;;;3.22;3.03;;;7.00;99.90;;;;;;5038468;28;20616;-77
2021/12/03 08:18:05;;;;;;;3.35;3.10;;;7.50;99.90;;;;;;5045298;28;20225;-77
2021/12/03 08:20:33;;;;;;;3.15;2.95;;;8.10;99.90;;;;;;5043636;28;20251;-78
2021/12/03 08:23:00;;;;;;;3.72;2.83;;;8.40;99.90;;;;;;5048155;28;20218;-76
2021/12/03 08:25:29;;;;;;;2.80;2.60;;;8.80;99.90;;;;;;5046032;28;20599;-78
2021/12/03 08:27:57;;;;;;;2.72;2.53;;;9.00;99.90;;;;;;5042643;28;20225;-77
2021/12/03 08:30:27;;;;;;;3.10;2.90;;;9.00;99.90;;;;;;5047198;28;20637;-79
2021/12/03 08:32:54;;;;;;;2.53;2.42;;;9.20;99.90;;;;;;5048712;28;20415;-76
2021/12/03 08:35:21;;;;;;;2.30;2.17;;;9.30;99.90;;;;;;5046404;28;20241;-76
2021/12/03 08:37:50;;;;;;;2.33;2.22;;;9.40;99.90;;;;;;5048075;28;20223;-77
2021/12/03 08:40:17;;;;;;;2.40;2.30;;;9.60;99.90;;;;;;5042413;28;20551;-76
2021/12/03 08:42:46;;;;;;;2.30;2.20;;;9.70;99.90;;;;;;5045944;28;20234;-79
2021/12/03 08:45:16;;;;;;;3.13;2.45;;;9.80;99.90;;;;;;5048411;28;20700;-76
2021/12/03 08:47:45;;;;;;;3.10;2.80;;;10.20;99.90;;;;;;5047905;28;20223;-75
2021/12/03 08:50:15;;;;;;;3.00;2.80;;;10.50;99.90;;;;;;5048244;28;20223;-77
2021/12/03 08:53:08;;;;;;;2.53;2.38;;;10.70;99.90;;;;;;5046717;28;20527;-77
2021/12/03 08:55:35;;;;;;;1.90;1.80;;;10.90;99.90;;;;;;5046694;28;20713;-78
2021/12/03 08:58:03;;;;;;;3.13;1.95;;;11.10;99.90;;;;;;5052833;28;20486;-79
2021/12/03 09:00:30;;;;;;;3.70;2.35;;;11.30;99.90;;;;;;5049525;28;20234;-77
2021/12/03 09:02:57;;;;;;;2.55;2.35;;;11.60;99.90;;;;;;5049937;28;20252;-78
2021/12/03 09:05:29;;;;;;;3.45;2.38;;;12.50;99.90;;;;;;5048796;28;20219;-80
2021/12/03 09:07:56;;;;;;;2.20;2.10;;;13.90;99.90;;;;;;5051991;28;20223;-79
2021/12/03 09:10:24;;;;;;;1.90;1.80;;;15.80;95.60;;;;;;5049332;28;20716;-78
2021/12/03 09:12:51;;;;;;;2.25;2.10;;;17.30;87.60;;;;;;5049681;28;20238;-78
2021/12/03 09:15:25;;;;;;;11.63;2.13;;;18.30;80.60;;;;;;5044149;28;20231;-76
2021/12/03 09:18:04;;;;;;;2.85;1.75;;;19.20;71.40;;;;;;5046173;28;20226;-77
2021/12/03 09:23:20;;;;;;;2.95;2.28;;;19.50;62.50;;;;;;5051312;28;20226;-76
2021/12/03 09:25:51;;;;;;;2.65;1.90;;;19.50;63.60;;;;;;5046464;28;20226;-79
2021/12/03 09:28:22;;;;;;;1.50;1.40;;;19.60;59.80;;;;;;5050239;28;20611;-77
2021/12/03 09:30:51;;;;;;;1.75;1.65;;;19.50;59.80;;;;;;5044234;28;20241;-78
2021/12/03 09:33:19;;;;;;;1.70;1.60;;;19.50;59.20;;;;;;5044274;28;20254;-76
2021/12/03 09:35:49;;;;;;;1.90;1.80;;;19.50;58.10;;;;;;5046663;28;20551;-77
2021/12/03 09:38:16;;;;;;;6.63;2.33;;;19.80;59.10;;;;;;5044588;28;20242;-77
2021/12/03 09:40:43;;;;;;;3.20;2.28;;;19.50;56.80;;;;;;5048115;28;20218;-78
2021/12/03 09:43:11;;;;;;;2.78;2.30;;;18.60;59.30;;;;;;5051533;28;20238;-78
2021/12/03 09:45:40;;;;;;;2.08;1.98;;;18.10;59.70;;;;;;5049456;28;20233;-76
2021/12/03 09:48:17;;;;;;;2.70;1.83;;;16.90;60.60;;;;;;5047643;28;20306;-76
2021/12/03 09:50:45;;;;;;;2.15;2.05;;;15.30;63.40;;;;;;5045768;28;20225;-76
2021/12/03 09:53:26;;;;;;;1.70;1.60;;;14.20;67.50;;;;;;5048220;28;20219;-79
2021/12/03 09:55:53;;;;;;;1.83;1.73;;;13.10;69.30;;;;;;5044923;28;20229;-77
2021/12/03 09:58:37;;;;;;;1.77;1.67;;;12.10;71.10;;;;;;5046356;28;20231;-78
2021/12/03 10:01:09;;;;;;;1.70;1.60;;;11.40;72.10;;;;;;5046328;28;20708;-78
2021/12/03 10:03:56;;;;;;;2.75;2.05;;;11.00;74.90;;;;;;5046655;28;20226;-76
2021/12/03 10:15:08;;;;;;;1.77;1.67;;;10.80;74.60;;;;;;5031831;28;20720;-77
2021/12/03 10:17:43;;;;;;;2.40;2.20;;;11.00;74.20;;;;;;5047661;28;20272;-77
2021/12/03 10:37:39;;;;;;;1.80;1.70;;;10.90;74.10;;;;;;5048323;28;20234;-78
2021/12/03 10:40:37;;;;;;;1.73;1.63;;;11.20;72.60;;;;;;5046308;28;20305;-77
2021/12/03 10:43:15;;;;;;;1.60;1.48;;;11.30;71.30;;;;;;5047455;28;20286;-76
2021/12/03 10:45:54;;;;;;;1.88;1.77;;;11.50;72.40;;;;;;5049538;28;20326;-79
2021/12/03 10:48:35;;;;;;;1.85;1.75;;;11.50;73.50;;;;;;5043633;28;20219;-77
2021/12/03 10:51:21;;;;;;;1.88;1.77;;;11.30;70.50;;;;;;5042828;28;20233;-77
2021/12/03 10:53:57;;;;;;;1.73;1.63;;;11.20;71.60;;;;;;5045277;28;20229;-79
2021/12/03 11:05:32;;;;;;;2.33;2.10;;;11.50;73.10;;;;;;5047589;28;20306;-79
2021/12/03 11:30:42;;;;;;;1.77;1.42;;;11.90;71.90;;;;;;5048952;28;20606;-78
2021/12/03 14:07:54;;;;;;;1.42;1.33;;;9.70;80.30;;;;;;5038600;28;20226;-75
2021/12/03 14:41:14;;;;;;;1.70;1.60;;;8.30;90.40;;;;;;5121790;27;20249;-74
2021/12/03 14:43:48;;;;;;;1.80;1.70;;;8.20;90.70;;;;;;5122309;27;20240;-73
2021/12/03 14:57:30;;;;;;;2.40;2.30;;;7.80;91.60;;;;;;5118943;27;20224;-73
2021/12/03 15:00:10;;;;;;;3.13;2.83;;;7.70;91.50;;;;;;5120442;27;20223;-77
2021/12/03 15:05:45;;;;;;;4.50;3.90;;;7.40;90.80;;;;;;5117382;27;20302;-74
2021/12/03 15:08:15;;;;;;;4.63;3.95;;;7.20;91.00;;;;;;5119673;27;20285;-75
2021/12/03 15:11:13;;;;;;;4.53;3.80;;;7.00;91.10;;;;;;5120036;27;20231;-75
2021/12/03 15:19:45;;;;;;;4.55;4.15;;;6.70;90.70;;;;;;5118052;27;20275;-74
2021/12/03 15:25:03;;;;;;;7.85;7.05;;;6.40;90.50;;;;;;5075367;27;20226;-72
2021/12/03 15:30:32;;;;;;;6.03;5.43;;;6.20;91.70;;;;;;5078024;27;20263;-73
2021/12/03 15:33:03;;;;;;;5.60;5.20;;;6.10;92.40;;;;;;5123299;27;20216;-75
2021/12/03 15:35:38;;;;;;;6.38;5.88;;;6.00;92.00;;;;;;5125077;27;20247;-73
2021/12/03 15:38:18;;;;;;;7.50;6.80;;;6.00;91.40;;;;;;5124888;27;20256;-73
2021/12/03 16:06:17;;;;;;;3.10;2.90;;;5.40;91.70;;;;;;5104976;27;20727;-75
2021/12/03 16:08:47;;;;;;;3.28;2.97;;;5.40;91.80;;;;;;5104995;27;20265;-74
2021/12/03 16:11:22;;;;;;;3.40;3.10;;;5.40;92.40;;;;;;5104495;27;20829;-74
2021/12/03 16:13:58;;;;;;;4.93;4.25;;;5.40;92.50;;;;;;5107317;27;20288;-73
2021/12/03 16:19:37;;;;;;;7.57;6.18;;;5.50;92.80;;;;;;5077225;27;20611;-73
2021/12/03 16:22:11;;;;;;;8.50;6.72;;;5.40;92.90;;;;;;5104857;27;20250;-73
2021/12/03 16:44:31;;;;;;;4.45;3.67;;;5.10;93.20;;;;;;5100716;27;20231;-75
2021/12/03 16:47:06;;;;;;;3.50;3.30;;;5.00;93.70;;;;;;5102495;27;20237;-75
2021/12/03 16:52:19;;;;;;;3.03;2.83;;;5.00;94.10;;;;;;5065975;27;20219;-74
2021/12/03 16:54:52;;;;;;;3.03;2.80;;;4.90;94.20;;;;;;5103626;27;20308;-73
2021/12/03 16:57:26;;;;;;;4.30;3.88;;;4.90;94.30;;;;;;5104724;27;20709;-73
2021/12/03 16:59:54;;;;;;;5.40;4.90;;;4.90;94.20;;;;;;5100376;27;20303;-73
2021/12/03 17:02:28;;;;;;;4.38;3.97;;;4.90;94.40;;;;;;5104430;27;20228;-73
2021/12/03 17:11:10;;;;;;;4.75;4.30;;;4.80;93.90;;;;;;5070021;27;20220;-75
2021/12/03 17:13:54;;;;;;;8.07;5.10;;;4.80;94.00;;;;;;5104973;27;20267;-74
2021/12/03 17:30:48;;;;;;;21.30;9.02;;;4.50;95.00;;;;;;5100776;27;20212;-74
2021/12/03 17:50:05;;;;;;;7.70;4.80;;;4.10;96.00;;;;;;5104109;27;20261;-78
2021/12/03 17:53:02;;;;;;;6.35;4.25;;;4.00;95.30;;;;;;5102123;27;20255;-75
2021/12/03 17:58:22;;;;;;;4.20;3.75;;;3.90;94.60;;;;;;5103647;27;20464;-73
2021/12/03 18:00:55;;;;;;;3.83;3.40;;;3.80;95.60;;;;;;5104471;27;20244;-73
2021/12/03 18:03:28;;;;;;;3.60;3.20;;;3.80;95.80;;;;;;5100800;27;20239;-74
2021/12/03 18:06:32;;;;;;;3.17;2.88;;;3.70;95.40;;;;;;5100709;27;20228;-74
2021/12/03 18:09:10;;;;;;;3.10;2.90;;;3.60;95.80;;;;;;5100348;27;20227;-71
2021/12/03 18:44:57;;;;;;;4.82;4.40;;;3.50;97.10;;;;;;5102237;27;20248;-72
2021/12/03 18:53:01;;;;;;;3.95;3.60;;;3.40;97.10;;;;;;5056736;27;20212;-76
2021/12/03 18:55:35;;;;;;;3.95;3.65;;;3.30;97.00;;;;;;5104790;27;20731;-74
2021/12/03 18:58:04;;;;;;;4.68;4.22;;;3.30;97.10;;;;;;5103940;27;20655;-71
2021/12/03 19:00:35;;;;;;;3.88;3.60;;;3.30;97.10;;;;;;5103130;27;20277;-72
2021/12/03 19:03:07;;;;;;;3.70;3.47;;;3.20;97.30;;;;;;5101141;27;20221;-72
2021/12/03 19:05:47;;;;;;;4.00;3.70;;;3.20;97.50;;;;;;5103239;27;20239;-76
2021/12/03 19:08:17;;;;;;;3.50;3.30;;;3.20;97.50;;;;;;5103156;27;20258;-74
2021/12/03 19:10:46;;;;;;;3.63;3.35;;;3.10;97.60;;;;;;5102743;27;20257;-73
2021/12/03 19:13:18;;;;;;;3.67;3.38;;;3.10;97.60;;;;;;5104510;27;20217;-73
2021/12/03 19:15:48;;;;;;;3.70;3.40;;;3.00;97.90;;;;;;5104198;27;20228;-72
2021/12/03 19:18:16;;;;;;;2.63;2.42;;;2.90;98.10;;;;;;5102861;27;20244;-74
2021/12/03 19:20:43;;;;;;;5.35;3.15;;;2.90;98.20;;;;;;5102960;27;20220;-73
2021/12/03 19:23:10;;;;;;;3.25;3.05;;;3.00;98.20;;;;;;5103913;27;20229;-73
2021/12/03 19:25:38;;;;;;;3.53;3.15;;;3.00;98.30;;;;;;5108540;27;20228;-75
2021/12/03 19:28:05;;;;;;;3.28;3.08;;;3.00;98.30;;;;;;5105538;27;20229;-73
2021/12/03 19:30:33;;;;;;;2.63;2.50;;;3.00;98.20;;;;;;5102832;27;20730;-71
2021/12/03 19:33:01;;;;;;;3.30;3.10;;;2.90;98.10;;;;;;5101802;27;20223;-76
2021/12/03 19:35:28;;;;;;;2.97;2.88;;;2.90;98.20;;;;;;5107690;27;20216;-72
2021/12/03 19:37:57;;;;;;;3.00;2.80;;;2.90;98.20;;;;;;5105690;27;20729;-71
2021/12/03 19:40:25;;;;;;;3.20;3.00;;;2.90;97.90;;;;;;5106386;27;20221;-72
2021/12/03 19:42:57;;;;;;;3.20;3.00;;;2.80;98.10;;;;;;5106749;27;20228;-73
2021/12/03 19:45:31;;;;;;;3.45;3.25;;;2.80;98.20;;;;;;5106295;27;20236;-74
2021/12/03 19:48:02;;;;;;;4.00;3.55;;;2.70;98.20;;;;;;5105789;27;20207;-72
2021/12/03 19:50:40;;;;;;;3.65;3.35;;;2.60;98.50;;;;;;5106048;27;20227;-72